Time,TemperatureF,DewpointF,PressureIn,WindDirection,WindDirectionDegrees,WindSpeedMPH,WindSpeedGustMPH,Humidity,HourlyPrecipIn,Conditions,Clouds,dailyrainin,SolarRadiationWatts/m^2,SoftwareType,DateUTC
2013-01-13 00:00:00,30.1,9.8,30.16,ENE,59,3.0,4.0,42,0.00,,,0.00,0,LWC V2.00 B727,2013-01-13 07:00:00,
2013-01-13 00:05:00,30.3,10.0,30.16,ENE,59,2.0,3.0,42,0.00,,,0.00,0,LWC V2.00 B727,2013-01-13 07:05:00,
2013-01-13 00:10:00,30.3,10.0,30.16,ENE,59,4.0,4.0,42,0.00,,,0.00,0,LWC V2.00 B727,2013-01-13 07:10:00,
2013-01-13 00:15:00,30.5,9.6,30.15,ENE,59,3.0,4.0,41,0.00,,,0.00,0,LWC V2.00 B727,2013-01-13 07:15:00,
2013-01-13 00:20:00,30.5,9.6,30.15,ENE,59,3.0,5.0,41,0.00,,,0.00,0,LWC V2.00 B727,2013-01-13 07:20:00,
2013-01-13 00:25:00,30.5,9.6,30.15,ENE,60,2.0,3.0,41,0.00,,,0.00,0,LWC V2.00 B727,2013-01-13 07:25:00,
2013-01-13 00:30:00,30.4,9.5,30.15,ENE,60,2.0,3.0,41,0.00,,,0.00,0,LWC V2.00 B727,2013-01-13 07:30:00,
2013-01-13 00:35:00,30.1,9.8,30.16,ENE,60,1.0,2.0,42,0.00,,,0.00,0,LWC V2.00 B727,2013-01-13 07:35:00,
2013-01-13 00:40:00,29.7,9.4,30.15,ENE,60,3.0,3.0,42,0.00,,,0.00,0,LWC V2.00 B727,2013-01-13 07:40:00,
2013-01-13 00:45:00,29.4,9.7,30.15,ENE,60,2.0,4.0,43,0.00,,,0.00,0,LWC V2.00 B727,2013-01-13 07:45:00,
2013-01-13 00:50:00,29.4,9.7,30.15,ENE,60,3.0,4.0,43,0.00,,,0.00,0,LWC V2.00 B727,2013-01-13 07:50:00,
2013-01-13 00:55:00,29.7,9.4,30.15,ENE,60,2.0,4.0,42,0.00,,,0.00,0,LWC V2.00 B727,2013-01-13 07:55:00,
2013-01-13 01:00:00,29.9,9.6,30.15,ENE,60,3.0,4.0,42,0.00,,,0.00,0,LWC V2.00 B727,2013-01-13 08:00:00,
2013-01-13 01:05:00,30.2,9.4,30.15,ENE,60,3.0,3.0,41,0.00,,,0.00,0,LWC V2.00 B727,2013-01-13 08:05:00,
2013-01-13 01:10:00,30.6,9.2,30.15,ENE,60,3.0,4.0,40,0.00,,,0.00,0,LWC V2.00 B727,2013-01-13 08:10:00,
2013-01-13 01:15:00,30.3,9.5,30.15,ENE,60,2.0,3.0,41,0.00,,,0.00,0,LWC V2.00 B727,2013-01-13 08:15:00,
2013-01-13 01:20:00,29.9,9.6,30.15,ENE,60,2.0,3.0,42,0.00,,,0.00,0,LWC V2.00 B727,2013-01-13 08:20:00,
2013-01-13 01:25:00,29.7,10.0,30.15,ENE,60,0.0,0.0,43,0.00,,,0.00,0,LWC V2.00 B727,2013-01-13 08:25:00,
2013-01-13 01:30:00,28.8,9.7,30.15,ENE,60,0.0,0.0,44,0.00,,,0.00,0,LWC V2.00 B727,2013-01-13 08:30:00,
2013-01-13 01:35:00,28.9,9.2,30.15,ENE,60,1.0,2.0,43,0.00,,,0.00,0,LWC V2.00 B727,2013-01-13 08:35:00,
2013-01-13 01:40:00,29.6,9.9,30.15,ENE,60,2.0,3.0,43,0.00,,,0.00,0,LWC V2.00 B727,2013-01-13 08:40:00,
2013-01-13 01:45:00,29.7,9.4,30.15,ENE,60,3.0,3.0,42,0.00,,,0.00,0,LWC V2.00 B727,2013-01-13 08:45:00,
2013-01-13 01:50:00,29.7,10.0,30.15,ENE,60,3.0,4.0,43,0.00,,,0.00,0,LWC V2.00 B727,2013-01-13 08:50:00,
2013-01-13 01:55:00,29.6,9.9,30.15,ENE,60,2.0,3.0,43,0.00,,,0.00,0,LWC V2.00 B727,2013-01-13 08:55:00,
2013-01-13 02:00:00,29.7,10.0,30.15,ENE,60,2.0,3.0,43,0.00,,,0.00,0,LWC V2.00 B727,2013-01-13 09:00:00,
2013-01-13 02:05:00,29.9,10.2,30.15,ENE,60,2.0,4.0,43,0.00,,,0.00,0,LWC V2.00 B727,2013-01-13 09:05:00,
2013-01-13 02:10:00,30.1,9.8,30.15,ENE,60,1.0,2.0,42,0.00,,,0.00,0,LWC V2.00 B727,2013-01-13 09:10:00,
2013-01-13 02:15:00,29.8,9.5,30.15,ENE,60,1.0,2.0,42,0.00,,,0.00,0,LWC V2.00 B727,2013-01-13 09:15:00,
2013-01-13 02:20:00,29.6,9.4,30.15,ENE,60,0.0,0.0,42,0.00,,,0.00,0,LWC V2.00 B727,2013-01-13 09:20:00,
2013-01-13 02:25:00,28.8,9.7,30.15,ENE,60,0.0,0.0,44,0.00,,,0.00,0,LWC V2.00 B727,2013-01-13 09:25:00,
2013-01-13 02:30:00,28.7,10.6,30.15,ENE,60,0.0,0.0,46,0.00,,,0.00,0,LWC V2.00 B727,2013-01-13 09:30:00,
2013-01-13 02:35:00,28.5,10.4,30.15,ENE,60,0.0,0.0,46,0.00,,,0.00,0,LWC V2.00 B727,2013-01-13 09:35:00,
2013-01-13 02:40:00,28.1,10.0,30.15,ENE,60,0.0,0.0,46,0.00,,,0.00,0,LWC V2.00 B727,2013-01-13 09:40:00,
2013-01-13 02:45:00,28.4,10.3,30.15,ENE,60,3.0,3.0,46,0.00,,,0.00,0,LWC V2.00 B727,2013-01-13 09:45:00,
2013-01-13 02:50:00,29.2,10.5,30.15,ENE,60,2.0,3.0,45,0.00,,,0.00,0,LWC V2.00 B727,2013-01-13 09:50:00,
2013-01-13 02:55:00,29.5,10.3,30.15,ENE,60,2.0,3.0,44,0.00,,,0.00,0,LWC V2.00 B727,2013-01-13 09:55:00,
2013-01-13 03:00:00,29.7,10.5,30.15,ENE,60,0.0,4.0,44,0.00,,,0.00,0,LWC V2.00 B727,2013-01-13 10:00:00,
2013-01-13 03:05:00,29.7,10.5,30.15,ENE,60,3.0,3.0,44,0.00,,,0.00,0,LWC V2.00 B727,2013-01-13 10:05:00,
2013-01-13 03:10:00,29.7,10.5,30.15,ENE,60,2.0,3.0,44,0.00,,,0.00,0,LWC V2.00 B727,2013-01-13 10:10:00,
2013-01-13 03:15:00,29.4,10.2,30.15,ENE,60,0.0,0.0,44,0.00,,,0.00,0,LWC V2.00 B727,2013-01-13 10:15:00,
2013-01-13 03:20:00,28.9,10.3,30.15,ENE,60,0.0,0.0,45,0.00,,,0.00,0,LWC V2.00 B727,2013-01-13 10:20:00,
2013-01-13 03:25:00,28.0,9.9,30.15,ENE,60,0.0,1.0,46,0.00,,,0.00,0,LWC V2.00 B727,2013-01-13 10:25:00,
2013-01-13 03:30:00,28.1,10.0,30.15,ENE,60,1.0,2.0,46,0.00,,,0.00,0,LWC V2.00 B727,2013-01-13 10:30:00,
2013-01-13 03:35:00,28.2,10.1,30.14,ENE,60,2.0,3.0,46,0.00,,,0.00,0,LWC V2.00 B727,2013-01-13 10:35:00,
2013-01-13 03:40:00,27.9,10.3,30.14,ENE,60,0.0,2.0,47,0.00,,,0.00,0,LWC V2.00 B727,2013-01-13 10:40:00,
2013-01-13 03:45:00,28.0,10.9,30.14,ENE,60,2.0,2.0,48,0.00,,,0.00,0,LWC V2.00 B727,2013-01-13 10:45:00,
2013-01-13 03:50:00,28.1,11.0,30.14,ENE,60,0.0,0.0,48,0.00,,,0.00,0,LWC V2.00 B727,2013-01-13 10:50:00,
2013-01-13 03:55:00,28.2,11.1,30.14,ENE,60,0.0,1.0,48,0.00,,,0.00,0,LWC V2.00 B727,2013-01-13 10:55:00,
2013-01-13 04:00:00,27.6,10.5,30.14,ENE,60,0.0,0.0,48,0.00,,,0.00,0,LWC V2.00 B727,2013-01-13 11:00:00,
2013-01-13 04:05:00,27.6,10.5,30.13,ENE,60,0.0,0.0,48,0.00,,,0.00,0,LWC V2.00 B727,2013-01-13 11:05:00,
2013-01-13 04:10:00,27.9,10.8,30.13,ENE,60,1.0,2.0,48,0.00,,,0.00,0,LWC V2.00 B727,2013-01-13 11:10:00,
2013-01-13 04:15:00,28.2,11.1,30.13,ENE,60,2.0,2.0,48,0.00,,,0.00,0,LWC V2.00 B727,2013-01-13 11:15:00,
2013-01-13 04:20:00,28.6,10.5,30.13,ENE,60,1.0,2.0,46,0.00,,,0.00,0,LWC V2.00 B727,2013-01-13 11:20:00,
2013-01-13 04:25:00,28.7,10.6,30.13,ENE,60,0.0,1.0,46,0.00,,,0.00,0,LWC V2.00 B727,2013-01-13 11:25:00,
2013-01-13 04:30:00,29.1,9.9,30.13,ENE,60,0.0,0.0,44,0.00,,,0.00,0,LWC V2.00 B727,2013-01-13 11:30:00,
2013-01-13 04:35:00,29.2,10.0,30.13,ENE,60,0.0,0.0,44,0.00,,,0.00,0,LWC V2.00 B727,2013-01-13 11:35:00,
2013-01-13 04:40:00,29.0,9.8,30.13,ENE,60,0.0,0.0,44,0.00,,,0.00,0,LWC V2.00 B727,2013-01-13 11:40:00,
2013-01-13 04:45:00,29.2,10.0,30.13,ENE,60,0.0,0.0,44,0.00,,,0.00,0,LWC V2.00 B727,2013-01-13 11:45:00,
2013-01-13 04:50:00,28.8,9.7,30.13,ENE,60,0.0,0.0,44,0.00,,,0.00,0,LWC V2.00 B727,2013-01-13 11:50:00,
2013-01-13 04:55:00,27.8,9.7,30.12,ENE,60,0.0,1.0,46,0.00,,,0.00,0,LWC V2.00 B727,2013-01-13 11:55:00,
2013-01-13 05:00:00,27.7,10.6,30.12,ENE,60,1.0,1.0,48,0.00,,,0.00,0,LWC V2.00 B727,2013-01-13 12:00:00,
2013-01-13 05:05:00,27.8,10.7,30.12,ENE,60,2.0,2.0,48,0.00,,,0.00,0,LWC V2.00 B727,2013-01-13 12:05:00,
2013-01-13 05:10:00,28.0,10.4,30.12,ENE,60,2.0,2.0,47,0.00,,,0.00,0,LWC V2.00 B727,2013-01-13 12:10:00,
2013-01-13 05:15:00,28.1,10.5,30.12,ENE,60,1.0,2.0,47,0.00,,,0.00,0,LWC V2.00 B727,2013-01-13 12:15:00,
2013-01-13 05:20:00,28.4,10.3,30.13,ENE,60,1.0,2.0,46,0.00,,,0.00,0,LWC V2.00 B727,2013-01-13 12:20:00,
2013-01-13 05:25:00,28.1,10.5,30.12,ENE,60,0.0,1.0,47,0.00,,,0.00,0,LWC V2.00 B727,2013-01-13 12:25:00,
2013-01-13 05:30:00,28.0,10.4,30.12,ENE,60,0.0,0.0,47,0.00,,,0.00,0,LWC V2.00 B727,2013-01-13 12:30:00,
2013-01-13 05:35:00,28.1,10.0,30.12,ENE,60,0.0,0.0,46,0.00,,,0.00,0,LWC V2.00 B727,2013-01-13 12:35:00,
2013-01-13 05:40:00,28.2,10.1,30.12,ENE,60,0.0,1.0,46,0.00,,,0.00,0,LWC V2.00 B727,2013-01-13 12:40:00,
2013-01-13 05:45:00,28.3,9.7,30.12,ENE,60,0.0,2.0,45,0.00,,,0.00,0,LWC V2.00 B727,2013-01-13 12:45:00,
2013-01-13 05:50:00,28.6,10.0,30.12,ENE,60,2.0,3.0,45,0.00,,,0.00,0,LWC V2.00 B727,2013-01-13 12:50:00,
2013-01-13 05:55:00,28.7,10.6,30.12,ENE,60,2.0,3.0,46,0.00,,,0.00,0,LWC V2.00 B727,2013-01-13 12:55:00,
2013-01-13 06:00:00,29.0,10.4,30.12,ENE,60,2.0,3.0,45,0.00,,,0.00,0,LWC V2.00 B727,2013-01-13 13:00:00,
2013-01-13 06:05:00,28.8,10.2,30.13,ENE,60,1.0,2.0,45,0.00,,,0.00,0,LWC V2.00 B727,2013-01-13 13:05:00,
2013-01-13 06:10:00,28.9,10.3,30.13,ENE,60,2.0,3.0,45,0.00,,,0.00,0,LWC V2.00 B727,2013-01-13 13:10:00,
2013-01-13 06:15:00,29.0,10.4,30.13,ENE,60,2.0,2.0,45,0.00,,,0.00,0,LWC V2.00 B727,2013-01-13 13:15:00,
2013-01-13 06:20:00,29.0,9.8,30.14,ENE,60,3.0,4.0,44,0.00,,,0.00,0,LWC V2.00 B727,2013-01-13 13:20:00,
2013-01-13 06:25:00,28.5,10.4,30.14,ENE,60,4.0,4.0,46,0.00,,,0.00,0,LWC V2.00 B727,2013-01-13 13:25:00,
2013-01-13 06:30:00,28.3,10.2,30.14,ENE,60,3.0,3.0,46,0.00,,,0.00,0,LWC V2.00 B727,2013-01-13 13:30:00,
2013-01-13 06:36:00,28.3,10.2,30.14,ENE,60,2.0,3.0,46,0.00,,,0.00,0,LWC V2.00 B727,2013-01-13 13:36:00,
2013-01-13 06:41:00,28.3,10.2,30.14,ENE,60,3.0,4.0,46,0.00,,,0.00,0,LWC V2.00 B727,2013-01-13 13:41:00,
2013-01-13 06:46:00,28.3,10.2,30.14,ENE,60,2.0,3.0,46,0.00,,,0.00,0,LWC V2.00 B727,2013-01-13 13:46:00,
2013-01-13 06:51:00,28.2,10.6,30.15,ENE,60,2.0,3.0,47,0.00,,,0.00,0,LWC V2.00 B727,2013-01-13 13:51:00,
2013-01-13 06:56:00,28.2,10.6,30.15,ENE,60,2.0,3.0,47,0.00,,,0.00,0,LWC V2.00 B727,2013-01-13 13:56:00,
2013-01-13 07:01:00,28.3,10.7,30.15,ENE,60,1.0,2.0,47,0.00,,,0.00,0,LWC V2.00 B727,2013-01-13 14:01:00,
2013-01-13 07:06:00,28.3,10.7,30.15,ENE,60,0.0,2.0,47,0.00,,,0.00,0,LWC V2.00 B727,2013-01-13 14:06:00,
2013-01-13 07:11:00,28.0,10.9,30.15,ENE,60,1.0,1.0,48,0.00,,,0.00,0,LWC V2.00 B727,2013-01-13 14:11:00,
2013-01-13 07:16:00,28.0,10.4,30.14,ENE,60,0.0,1.0,47,0.00,,,0.00,0,LWC V2.00 B727,2013-01-13 14:16:00,
2013-01-13 07:21:00,28.1,10.5,30.15,ENE,60,0.0,1.0,47,0.00,,,0.00,5,LWC V2.00 B727,2013-01-13 14:21:00,
2013-01-13 07:26:00,28.3,10.2,30.15,ENE,60,0.0,0.0,46,0.00,,,0.00,5,LWC V2.00 B727,2013-01-13 14:26:00,
2013-01-13 07:31:00,28.9,10.3,30.15,ENE,60,0.0,0.0,45,0.00,,,0.00,9,LWC V2.00 B727,2013-01-13 14:31:00,
2013-01-13 07:36:00,29.9,9.6,30.15,ENE,60,0.0,0.0,42,0.00,,,0.00,12,LWC V2.00 B727,2013-01-13 14:36:00,
2013-01-13 07:41:00,29.9,9.6,30.16,ENE,60,0.0,0.0,42,0.00,,,0.00,18,LWC V2.00 B727,2013-01-13 14:41:00,
2013-01-13 07:46:00,29.8,9.5,30.15,ENE,60,0.0,1.0,42,0.00,,,0.00,23,LWC V2.00 B727,2013-01-13 14:46:00,
2013-01-13 07:51:00,29.2,10.0,30.15,ENE,60,2.0,3.0,44,0.00,,,0.00,28,LWC V2.00 B727,2013-01-13 14:51:00,
2013-01-13 07:56:00,29.3,10.6,30.15,ENE,60,2.0,3.0,45,0.00,,,0.00,30,LWC V2.00 B727,2013-01-13 14:56:00,
2013-01-13 08:01:00,29.4,10.7,30.15,ENE,60,1.0,2.0,45,0.00,,,0.00,32,LWC V2.00 B727,2013-01-13 15:01:00,
2013-01-13 08:06:00,29.5,10.8,30.15,ENE,60,2.0,3.0,45,0.00,,,0.00,33,LWC V2.00 B727,2013-01-13 15:06:00,
2013-01-13 08:11:00,29.6,10.4,30.15,ENE,60,1.0,3.0,44,0.00,,,0.00,33,LWC V2.00 B727,2013-01-13 15:11:00,
2013-01-13 08:16:00,29.7,10.5,30.15,ENE,60,1.0,2.0,44,0.00,,,0.00,33,LWC V2.00 B727,2013-01-13 15:16:00,
2013-01-13 08:21:00,29.9,10.2,30.15,ENE,60,0.0,1.0,43,0.00,,,0.00,107,LWC V2.00 B727,2013-01-13 15:21:00,
2013-01-13 08:26:00,30.7,10.4,30.16,ENE,60,0.0,0.0,42,0.00,,,0.00,149,LWC V2.00 B727,2013-01-13 15:26:00,
2013-01-13 08:31:00,31.2,10.8,30.16,ENE,60,0.0,0.0,42,0.00,,,0.00,183,LWC V2.00 B727,2013-01-13 15:31:00,
2013-01-13 08:36:00,31.4,10.5,30.16,ENE,60,0.0,0.0,41,0.00,,,0.00,193,LWC V2.00 B727,2013-01-13 15:36:00,
2013-01-13 08:41:00,32.2,10.6,30.16,ENE,60,0.0,0.0,40,0.00,,,0.00,181,LWC V2.00 B727,2013-01-13 15:41:00,
2013-01-13 08:46:00,33.4,11.7,30.16,ENE,60,0.0,0.0,40,0.00,,,0.00,230,LWC V2.00 B727,2013-01-13 15:46:00,
2013-01-13 08:51:00,34.2,12.4,30.16,ENE,60,0.0,0.0,40,0.00,,,0.00,195,LWC V2.00 B727,2013-01-13 15:51:00,
2013-01-13 08:56:00,34.1,12.9,30.16,ENE,60,0.0,1.0,41,0.00,,,0.00,243,LWC V2.00 B727,2013-01-13 15:56:00,
2013-01-13 09:01:00,34.2,13.5,30.16,ENE,60,2.0,3.0,42,0.00,,,0.00,262,LWC V2.00 B727,2013-01-13 16:01:00,
2013-01-13 09:06:00,34.4,13.2,30.16,ENE,60,0.0,1.0,41,0.00,,,0.00,234,LWC V2.00 B727,2013-01-13 16:06:00,
2013-01-13 09:10:00,34.3,11.9,30.17,ENE,60,0.0,0.0,39,0.00,,,0.00,193,LWC V2.00 B727,2013-01-13 16:10:00,
2013-01-13 09:15:00,33.2,14.2,30.16,ENE,60,0.0,0.0,45,0.00,,,0.00,229,LWC V2.00 B727,2013-01-13 16:15:00,
2013-01-13 09:20:00,33.4,13.9,30.17,ENE,60,0.0,0.0,44,0.00,,,0.00,322,LWC V2.00 B727,2013-01-13 16:20:00,
2013-01-13 09:25:00,33.9,13.8,30.17,ENE,60,0.0,0.0,43,0.00,,,0.00,385,LWC V2.00 B727,2013-01-13 16:25:00,
2013-01-13 09:30:00,35.1,13.2,30.17,ENE,60,0.0,1.0,40,0.00,,,0.00,381,LWC V2.00 B727,2013-01-13 16:30:00,
2013-01-13 09:35:00,35.3,13.4,30.17,ENE,60,0.0,0.0,40,0.00,,,0.00,246,LWC V2.00 B727,2013-01-13 16:35:00,
2013-01-13 09:40:00,35.7,12.6,30.17,ENE,60,0.0,0.0,38,0.00,,,0.00,276,LWC V2.00 B727,2013-01-13 16:40:00,
2013-01-13 09:45:00,36.2,11.8,30.17,ENE,60,0.0,1.0,36,0.00,,,0.00,306,LWC V2.00 B727,2013-01-13 16:45:00,
2013-01-13 09:50:00,36.4,12.6,30.17,ENE,60,0.0,1.0,37,0.00,,,0.00,253,LWC V2.00 B727,2013-01-13 16:50:00,
2013-01-13 09:55:00,35.9,10.3,30.16,ENE,61,0.0,0.0,34,0.00,,,0.00,220,LWC V2.00 B727,2013-01-13 16:55:00,
2013-01-13 10:00:00,36.1,10.5,30.16,ENE,60,0.0,0.0,34,0.00,,,0.00,223,LWC V2.00 B727,2013-01-13 17:00:00,
2013-01-13 10:05:00,36.7,11.0,30.16,ENE,61,0.0,0.0,34,0.00,,,0.00,257,LWC V2.00 B727,2013-01-13 17:05:00,
2013-01-13 10:10:00,37.2,12.1,30.16,ENE,61,0.0,0.0,35,0.00,,,0.00,297,LWC V2.00 B727,2013-01-13 17:10:00,
2013-01-13 10:15:00,37.5,11.0,30.16,ENE,61,0.0,0.0,33,0.00,,,0.00,352,LWC V2.00 B727,2013-01-13 17:15:00,
2013-01-13 10:20:00,38.0,10.8,30.16,ENE,60,0.0,2.0,32,0.00,,,0.00,422,LWC V2.00 B727,2013-01-13 17:20:00,
2013-01-13 10:25:00,38.3,11.7,30.15,ENE,60,0.0,0.0,33,0.00,,,0.00,406,LWC V2.00 B727,2013-01-13 17:25:00,
2013-01-13 10:30:00,38.5,11.2,30.15,ENE,60,0.0,0.0,32,0.00,,,0.00,466,LWC V2.00 B727,2013-01-13 17:30:00,
2013-01-13 10:35:00,38.4,9.7,30.15,ENE,61,0.0,0.0,30,0.00,,,0.00,417,LWC V2.00 B727,2013-01-13 17:35:00,
2013-01-13 10:40:00,38.6,10.6,30.15,ENE,61,1.0,3.0,31,0.00,,,0.00,485,LWC V2.00 B727,2013-01-13 17:40:00,
2013-01-13 10:45:00,38.7,10.7,30.15,ENE,61,0.0,2.0,31,0.00,,,0.00,459,LWC V2.00 B727,2013-01-13 17:45:00,
2013-01-13 10:50:00,39.2,10.4,30.15,ENE,60,0.0,2.0,30,0.00,,,0.00,575,LWC V2.00 B727,2013-01-13 17:50:00,
2013-01-13 10:55:00,39.6,10.0,30.14,ENE,63,0.0,2.0,29,0.00,,,0.00,480,LWC V2.00 B727,2013-01-13 17:55:00,
2013-01-13 11:00:00,39.8,11.7,30.14,ENE,61,3.0,3.0,31,0.00,,,0.00,559,LWC V2.00 B727,2013-01-13 18:00:00,
2013-01-13 11:05:00,40.4,10.7,30.14,SW,219,1.0,5.0,29,0.00,,,0.00,564,LWC V2.00 B727,2013-01-13 18:05:00,
2013-01-13 11:10:00,40.0,10.3,30.13,WSW,241,1.0,5.0,29,0.00,,,0.00,529,LWC V2.00 B727,2013-01-13 18:10:00,
2013-01-13 11:15:00,40.8,11.0,30.13,West,268,0.0,3.0,29,0.00,,,0.00,515,LWC V2.00 B727,2013-01-13 18:15:00,
2013-01-13 11:20:00,41.3,10.7,30.13,NW,307,0.0,0.0,28,0.00,,,0.00,471,LWC V2.00 B727,2013-01-13 18:20:00,
2013-01-13 11:25:00,41.3,9.9,30.12,NW,319,0.0,2.0,27,0.00,,,0.00,388,LWC V2.00 B727,2013-01-13 18:25:00,
2013-01-13 11:30:00,40.8,9.4,30.12,NNE,16,3.0,3.0,27,0.00,,,0.00,473,LWC V2.00 B727,2013-01-13 18:30:00,
2013-01-13 11:35:00,40.8,9.4,30.12,WSW,237,2.0,5.0,27,0.00,,,0.00,561,LWC V2.00 B727,2013-01-13 18:35:00,
2013-01-13 11:40:00,40.8,8.6,30.11,SW,229,3.0,4.0,26,0.00,,,0.00,661,LWC V2.00 B727,2013-01-13 18:40:00,
2013-01-13 11:45:00,41.3,9.0,30.11,WSW,252,3.0,5.0,26,0.00,,,0.00,650,LWC V2.00 B727,2013-01-13 18:45:00,
2013-01-13 11:50:00,41.4,7.3,30.11,SW,230,3.0,4.0,24,0.00,,,0.00,635,LWC V2.00 B727,2013-01-13 18:50:00,
2013-01-13 11:55:00,42.0,8.8,30.10,SSW,203,2.0,5.0,25,0.00,,,0.00,603,LWC V2.00 B727,2013-01-13 18:55:00,
2013-01-13 12:00:00,41.7,8.5,30.10,WSW,244,2.0,4.0,25,0.00,,,0.00,629,LWC V2.00 B727,2013-01-13 19:00:00,
2013-01-13 12:05:00,42.0,7.9,30.10,WSW,238,1.0,2.0,24,0.00,,,0.00,628,LWC V2.00 B727,2013-01-13 19:05:00,
2013-01-13 12:10:00,41.8,9.5,30.09,SW,216,2.0,4.0,26,0.00,,,0.00,633,LWC V2.00 B727,2013-01-13 19:10:00,
2013-01-13 12:15:00,41.6,9.3,30.08,SW,220,3.0,4.0,26,0.00,,,0.00,643,LWC V2.00 B727,2013-01-13 19:15:00,
2013-01-13 12:20:00,41.6,8.4,30.08,West,269,2.0,6.0,25,0.00,,,0.00,664,LWC V2.00 B727,2013-01-13 19:20:00,
2013-01-13 12:25:00,42.2,8.0,30.08,SSW,210,6.0,7.0,24,0.00,,,0.00,626,LWC V2.00 B727,2013-01-13 19:25:00,
2013-01-13 12:30:00,41.1,7.1,30.07,South,185,0.0,2.0,24,0.00,,,0.00,575,LWC V2.00 B727,2013-01-13 19:30:00,
2013-01-13 12:35:00,41.1,7.1,30.07,SSW,209,2.0,2.0,24,0.00,,,0.00,601,LWC V2.00 B727,2013-01-13 19:35:00,
2013-01-13 12:40:00,42.4,9.1,30.06,WSW,244,3.0,4.0,25,0.00,,,0.00,684,LWC V2.00 B727,2013-01-13 19:40:00,
2013-01-13 12:45:00,42.2,7.1,30.06,SSW,207,1.0,7.0,23,0.00,,,0.00,661,LWC V2.00 B727,2013-01-13 19:45:00,
2013-01-13 12:50:00,43.1,8.8,30.06,West,263,3.0,6.0,24,0.00,,,0.00,722,LWC V2.00 B727,2013-01-13 19:50:00,
2013-01-13 12:55:00,42.6,8.4,30.06,WNW,286,1.0,3.0,24,0.00,,,0.00,673,LWC V2.00 B727,2013-01-13 19:55:00,
2013-01-13 13:00:00,43.5,8.2,30.06,West,264,4.0,8.0,23,0.00,,,0.00,599,LWC V2.00 B727,2013-01-13 20:00:00,
2013-01-13 13:05:00,43.3,9.0,30.06,SW,227,4.0,5.0,24,0.00,,,0.00,591,LWC V2.00 B727,2013-01-13 20:05:00,
2013-01-13 13:10:00,43.1,7.9,30.06,SW,229,2.0,6.0,23,0.00,,,0.00,598,LWC V2.00 B727,2013-01-13 20:10:00,
2013-01-13 13:15:00,42.9,7.7,30.05,SSW,207,3.0,5.0,23,0.00,,,0.00,642,LWC V2.00 B727,2013-01-13 20:15:00,
2013-01-13 13:20:00,43.3,8.0,30.05,SSW,196,2.0,4.0,23,0.00,,,0.00,636,LWC V2.00 B727,2013-01-13 20:20:00,
2013-01-13 13:25:00,42.8,7.6,30.05,SSW,211,1.0,2.0,23,0.00,,,0.00,621,LWC V2.00 B727,2013-01-13 20:25:00,
2013-01-13 13:30:00,44.0,8.6,30.05,SSW,207,5.0,8.0,23,0.00,,,0.00,613,LWC V2.00 B727,2013-01-13 20:30:00,
2013-01-13 13:35:00,43.1,7.9,30.05,WSW,248,1.0,4.0,23,0.00,,,0.00,603,LWC V2.00 B727,2013-01-13 20:35:00,
2013-01-13 13:40:00,44.2,7.8,30.05,SW,224,4.0,7.0,22,0.00,,,0.00,598,LWC V2.00 B727,2013-01-13 20:40:00,
2013-01-13 13:45:00,44.1,8.7,30.05,SW,236,1.0,4.0,23,0.00,,,0.00,591,LWC V2.00 B727,2013-01-13 20:45:00,
2013-01-13 13:50:00,43.7,8.4,30.04,SW,218,2.0,3.0,23,0.00,,,0.00,582,LWC V2.00 B727,2013-01-13 20:50:00,
2013-01-13 13:55:00,43.7,8.4,30.04,SW,236,0.0,1.0,23,0.00,,,0.00,575,LWC V2.00 B727,2013-01-13 20:55:00,
2013-01-13 14:00:00,44.5,9.0,30.05,SW,223,3.0,6.0,23,0.00,,,0.00,568,LWC V2.00 B727,2013-01-13 21:00:00,
2013-01-13 14:05:00,43.8,8.4,30.05,SSW,192,3.0,3.0,23,0.00,,,0.00,561,LWC V2.00 B727,2013-01-13 21:05:00,
2013-01-13 14:10:00,43.5,8.2,30.05,SSE,152,0.0,4.0,23,0.00,,,0.00,552,LWC V2.00 B727,2013-01-13 21:10:00,
2013-01-13 14:15:00,44.2,8.8,30.05,WNW,288,2.0,3.0,23,0.00,,,0.00,543,LWC V2.00 B727,2013-01-13 21:15:00,
2013-01-13 14:20:00,44.8,8.3,30.05,West,259,4.0,8.0,22,0.00,,,0.00,536,LWC V2.00 B727,2013-01-13 21:20:00,
2013-01-13 14:25:00,44.9,7.4,30.05,West,261,0.0,4.0,21,0.00,,,0.00,527,LWC V2.00 B727,2013-01-13 21:25:00,
2013-01-13 14:30:00,45.2,7.6,30.05,NW,306,2.0,3.0,21,0.00,,,0.00,522,LWC V2.00 B727,2013-01-13 21:30:00,
2013-01-13 14:35:00,45.0,6.4,30.05,WNW,286,3.0,5.0,20,0.00,,,0.00,512,LWC V2.00 B727,2013-01-13 21:35:00,
2013-01-13 14:40:00,44.5,6.0,30.04,North,350,0.0,2.0,20,0.00,,,0.00,504,LWC V2.00 B727,2013-01-13 21:40:00,
2013-01-13 14:45:00,44.9,8.4,30.04,SSE,156,2.0,5.0,22,0.00,,,0.00,490,LWC V2.00 B727,2013-01-13 21:45:00,
2013-01-13 14:50:00,44.6,7.1,30.04,SSE,155,2.0,3.0,21,0.00,,,0.00,478,LWC V2.00 B727,2013-01-13 21:50:00,
2013-01-13 14:55:00,44.6,7.1,30.05,SSE,155,2.0,3.0,21,0.00,,,0.00,466,LWC V2.00 B727,2013-01-13 21:55:00,
2013-01-13 15:00:00,44.5,7.0,30.05,South,191,1.0,2.0,21,0.00,,,0.00,454,LWC V2.00 B727,2013-01-13 22:00:00,
2013-01-13 15:05:00,44.3,6.9,30.05,SW,223,3.0,3.0,21,0.00,,,0.00,439,LWC V2.00 B727,2013-01-13 22:05:00,
2013-01-13 15:10:00,45.1,6.5,30.05,WSW,239,4.0,6.0,20,0.00,,,0.00,429,LWC V2.00 B727,2013-01-13 22:10:00,
2013-01-13 15:15:00,45.1,7.5,30.05,NNW,328,2.0,6.0,21,0.00,,,0.00,415,LWC V2.00 B727,2013-01-13 22:15:00,
2013-01-13 15:20:00,45.2,7.6,30.05,SSW,213,5.0,5.0,21,0.00,,,0.00,401,LWC V2.00 B727,2013-01-13 22:20:00,
2013-01-13 15:25:00,45.6,9.0,30.06,WSW,246,2.0,6.0,22,0.00,,,0.00,390,LWC V2.00 B727,2013-01-13 22:25:00,
2013-01-13 15:30:00,44.6,7.1,30.05,SW,227,2.0,4.0,21,0.00,,,0.00,376,LWC V2.00 B727,2013-01-13 22:30:00,
2013-01-13 15:35:00,44.7,8.2,30.05,WSW,250,3.0,4.0,22,0.00,,,0.00,364,LWC V2.00 B727,2013-01-13 22:35:00,
2013-01-13 15:40:00,45.4,9.8,30.06,SW,228,5.0,6.0,23,0.00,,,0.00,350,LWC V2.00 B727,2013-01-13 22:40:00,
2013-01-13 15:45:00,44.9,7.4,30.06,WSW,245,3.0,7.0,21,0.00,,,0.00,338,LWC V2.00 B727,2013-01-13 22:45:00,
2013-01-13 15:50:00,44.3,6.9,30.06,SSW,210,4.0,8.0,21,0.00,,,0.00,323,LWC V2.00 B727,2013-01-13 22:50:00,
2013-01-13 15:55:00,43.5,7.2,30.06,SSW,202,4.0,5.0,22,0.00,,,0.00,309,LWC V2.00 B727,2013-01-13 22:55:00,
2013-01-13 16:00:00,44.4,8.0,30.06,SSW,205,6.0,9.0,22,0.00,,,0.00,301,LWC V2.00 B727,2013-01-13 23:00:00,
2013-01-13 16:05:00,44.2,6.8,30.06,WNW,301,3.0,7.0,21,0.00,,,0.00,294,LWC V2.00 B727,2013-01-13 23:05:00,
2013-01-13 16:10:00,44.6,8.1,30.06,WSW,237,4.0,8.0,22,0.00,,,0.00,299,LWC V2.00 B727,2013-01-13 23:10:00,
2013-01-13 16:15:00,44.1,7.7,30.06,SSW,209,3.0,6.0,22,0.00,,,0.00,285,LWC V2.00 B727,2013-01-13 23:15:00,
2013-01-13 16:20:00,43.8,8.4,30.06,SSW,212,7.0,7.0,23,0.00,,,0.00,171,LWC V2.00 B727,2013-01-13 23:20:00,
2013-01-13 16:25:00,43.8,8.4,30.06,SW,233,4.0,6.0,23,0.00,,,0.00,234,LWC V2.00 B727,2013-01-13 23:25:00,
2013-01-13 16:30:00,43.6,7.3,30.06,SW,236,2.0,6.0,22,0.00,,,0.00,163,LWC V2.00 B727,2013-01-13 23:30:00,
2013-01-13 16:35:00,43.0,6.8,30.07,SW,227,2.0,8.0,22,0.00,,,0.00,148,LWC V2.00 B727,2013-01-13 23:35:00,
2013-01-13 16:40:00,42.5,5.4,30.07,SSW,211,4.0,7.0,21,0.00,,,0.00,79,LWC V2.00 B727,2013-01-13 23:40:00,
2013-01-13 16:45:00,42.2,6.1,30.07,SW,225,2.0,5.0,22,0.00,,,0.00,77,LWC V2.00 B727,2013-01-13 23:45:00,
2013-01-13 16:50:00,42.1,6.0,30.06,SW,215,3.0,4.0,22,0.00,,,0.00,125,LWC V2.00 B727,2013-01-13 23:50:00,
2013-01-13 16:55:00,42.5,5.4,30.06,SSW,209,5.0,5.0,21,0.00,,,0.00,105,LWC V2.00 B727,2013-01-13 23:55:00,
2013-01-13 17:00:00,42.4,4.2,30.07,SW,218,3.0,7.0,20,0.00,,,0.00,84,LWC V2.00 B727,2013-01-14 00:00:00,
2013-01-13 17:05:00,42.1,4.0,30.06,SW,234,2.0,4.0,20,0.00,,,0.00,63,LWC V2.00 B727,2013-01-14 00:05:00,
2013-01-13 17:10:00,41.8,4.8,30.06,SW,224,4.0,5.0,21,0.00,,,0.00,40,LWC V2.00 B727,2013-01-14 00:10:00,
2013-01-13 17:15:00,41.4,4.4,30.06,WSW,248,2.0,3.0,21,0.00,,,0.00,32,LWC V2.00 B727,2013-01-14 00:15:00,
2013-01-13 17:20:00,41.3,4.3,30.06,WSW,248,2.0,2.0,21,0.00,,,0.00,19,LWC V2.00 B727,2013-01-14 00:20:00,
2013-01-13 17:25:00,41.0,6.1,30.07,WSW,251,1.0,1.0,23,0.00,,,0.00,12,LWC V2.00 B727,2013-01-14 00:25:00,
2013-01-13 17:30:00,40.5,5.7,30.07,WSW,251,0.0,1.0,23,0.00,,,0.00,11,LWC V2.00 B727,2013-01-14 00:30:00,
2013-01-13 17:35:00,40.0,6.2,30.07,West,271,2.0,4.0,24,0.00,,,0.00,9,LWC V2.00 B727,2013-01-14 00:35:00,
2013-01-13 17:40:00,39.5,6.6,30.07,West,273,0.0,3.0,25,0.00,,,0.00,5,LWC V2.00 B727,2013-01-14 00:40:00,
2013-01-13 17:45:00,39.0,7.1,30.07,West,273,0.0,1.0,26,0.00,,,0.00,0,LWC V2.00 B727,2013-01-14 00:45:00,
2013-01-13 17:50:00,38.4,7.4,30.07,West,273,0.0,1.0,27,0.00,,,0.00,0,LWC V2.00 B727,2013-01-14 00:50:00,
2013-01-13 17:55:00,37.4,7.3,30.07,West,274,0.0,1.0,28,0.00,,,0.00,0,LWC V2.00 B727,2013-01-14 00:55:00,
2013-01-13 18:00:00,37.0,8.5,30.07,WNW,290,0.0,3.0,30,0.00,,,0.00,0,LWC V2.00 B727,2013-01-14 01:00:00,
2013-01-13 18:05:00,35.9,8.9,30.07,WNW,290,0.0,0.0,32,0.00,,,0.00,0,LWC V2.00 B727,2013-01-14 01:05:00,
2013-01-13 18:10:00,35.0,9.5,30.08,WNW,290,0.0,2.0,34,0.00,,,0.00,0,LWC V2.00 B727,2013-01-14 01:10:00,
2013-01-13 18:15:00,34.9,8.8,30.08,WNW,298,2.0,3.0,33,0.00,,,0.00,0,LWC V2.00 B727,2013-01-14 01:15:00,
2013-01-13 18:20:00,34.8,8.7,30.07,NW,304,1.0,1.0,33,0.00,,,0.00,0,LWC V2.00 B727,2013-01-14 01:20:00,
2013-01-13 18:25:00,35.0,8.8,30.08,NW,306,1.0,3.0,33,0.00,,,0.00,0,LWC V2.00 B727,2013-01-14 01:25:00,
2013-01-13 18:30:00,34.9,8.8,30.07,NE,43,2.0,3.0,33,0.00,,,0.00,0,LWC V2.00 B727,2013-01-14 01:30:00,
2013-01-13 18:35:00,34.8,8.7,30.08,NE,43,2.0,3.0,33,0.00,,,0.00,0,LWC V2.00 B727,2013-01-14 01:35:00,
2013-01-13 18:40:00,34.6,9.1,30.08,NE,43,2.0,4.0,34,0.00,,,0.00,0,LWC V2.00 B727,2013-01-14 01:40:00,
2013-01-13 18:45:00,34.4,9.0,30.08,NE,43,1.0,3.0,34,0.00,,,0.00,0,LWC V2.00 B727,2013-01-14 01:45:00,
2013-01-13 18:50:00,34.3,8.9,30.08,NE,43,2.0,3.0,34,0.00,,,0.00,0,LWC V2.00 B727,2013-01-14 01:50:00,
2013-01-13 18:55:00,34.1,8.7,30.08,NE,42,1.0,2.0,34,0.00,,,0.00,0,LWC V2.00 B727,2013-01-14 01:55:00,
2013-01-13 19:00:00,34.0,9.3,30.08,NE,42,2.0,2.0,35,0.00,,,0.00,0,LWC V2.00 B727,2013-01-14 02:00:00,
2013-01-13 19:05:00,33.9,9.8,30.08,NE,42,2.0,2.0,36,0.00,,,0.00,0,LWC V2.00 B727,2013-01-14 02:05:00,
2013-01-13 19:10:00,33.6,9.5,30.08,NE,42,1.0,2.0,36,0.00,,,0.00,0,LWC V2.00 B727,2013-01-14 02:10:00,
2013-01-13 19:15:00,33.2,9.8,30.08,NE,42,0.0,3.0,37,0.00,,,0.00,0,LWC V2.00 B727,2013-01-14 02:15:00,
2013-01-13 19:20:00,32.6,10.4,30.08,NE,42,2.0,3.0,39,0.00,,,0.00,0,LWC V2.00 B727,2013-01-14 02:20:00,
2013-01-13 19:25:00,32.3,10.1,30.08,NE,42,3.0,4.0,39,0.00,,,0.00,0,LWC V2.00 B727,2013-01-14 02:25:00,
2013-01-13 19:30:00,32.2,10.1,30.08,NE,42,4.0,4.0,39,0.00,,,0.00,0,LWC V2.00 B727,2013-01-14 02:30:00,
2013-01-13 19:35:00,32.4,10.2,30.08,NE,42,3.0,5.0,39,0.00,,,0.00,0,LWC V2.00 B727,2013-01-14 02:35:00,
2013-01-13 19:40:00,32.5,10.3,30.08,NE,42,4.0,4.0,39,0.00,,,0.00,0,LWC V2.00 B727,2013-01-14 02:40:00,
2013-01-13 19:45:00,32.6,10.4,30.08,NE,42,4.0,5.0,39,0.00,,,0.00,0,LWC V2.00 B727,2013-01-14 02:45:00,
2013-01-13 19:50:00,32.5,10.9,30.07,NE,42,2.0,4.0,40,0.00,,,0.00,0,LWC V2.00 B727,2013-01-14 02:50:00,
2013-01-13 19:55:00,32.4,10.8,30.07,NE,42,2.0,5.0,40,0.00,,,0.00,0,LWC V2.00 B727,2013-01-14 02:55:00,
2013-01-13 20:00:00,32.3,10.7,30.08,NE,42,4.0,5.0,40,0.00,,,0.00,0,LWC V2.00 B727,2013-01-14 03:00:00,
2013-01-13 20:05:00,32.1,11.1,30.07,NE,42,2.0,3.0,41,0.00,,,0.00,0,LWC V2.00 B727,2013-01-14 03:05:00,
2013-01-13 20:10:00,31.8,10.8,30.07,ENE,66,3.0,5.0,41,0.00,,,0.00,0,LWC V2.00 B727,2013-01-14 03:10:00,
2013-01-13 20:15:00,31.5,11.1,30.07,ENE,66,3.0,4.0,42,0.00,,,0.00,0,LWC V2.00 B727,2013-01-14 03:15:00,
2013-01-13 20:20:00,31.2,11.3,30.07,ENE,66,3.0,4.0,43,0.00,,,0.00,0,LWC V2.00 B727,2013-01-14 03:20:00,
2013-01-13 20:25:00,31.0,11.2,30.07,ENE,66,3.0,3.0,43,0.00,,,0.00,0,LWC V2.00 B727,2013-01-14 03:25:00,
2013-01-13 20:30:00,30.8,11.0,30.07,ENE,66,3.0,4.0,43,0.00,,,0.00,0,LWC V2.00 B727,2013-01-14 03:30:00,
2013-01-13 20:35:00,30.6,11.3,30.07,ENE,66,3.0,3.0,44,0.00,,,0.00,0,LWC V2.00 B727,2013-01-14 03:35:00,
2013-01-13 20:40:00,30.5,11.2,30.07,ENE,66,2.0,3.0,44,0.00,,,0.00,0,LWC V2.00 B727,2013-01-14 03:40:00,
2013-01-13 20:45:00,30.6,10.8,30.07,ENE,66,1.0,3.0,43,0.00,,,0.00,0,LWC V2.00 B727,2013-01-14 03:45:00,
2013-01-13 20:50:00,30.5,10.7,30.07,ENE,66,0.0,0.0,43,0.00,,,0.00,0,LWC V2.00 B727,2013-01-14 03:50:00,
2013-01-13 20:55:00,30.2,10.4,30.07,ENE,66,0.0,1.0,43,0.00,,,0.00,0,LWC V2.00 B727,2013-01-14 03:55:00,
2013-01-13 21:00:00,29.9,10.7,30.07,ENE,66,1.0,2.0,44,0.00,,,0.00,0,LWC V2.00 B727,2013-01-14 04:00:00,
2013-01-13 21:05:00,29.7,10.5,30.07,ENE,66,1.0,3.0,44,0.00,,,0.00,0,LWC V2.00 B727,2013-01-14 04:05:00,
2013-01-13 21:11:00,29.4,10.7,30.07,ENE,66,2.0,3.0,45,0.00,,,0.00,0,LWC V2.00 B727,2013-01-14 04:11:00,
2013-01-13 21:16:00,29.4,10.7,30.07,NNE,23,2.0,4.0,45,0.00,,,0.00,0,LWC V2.00 B727,2013-01-14 04:16:00,
2013-01-13 21:21:00,29.8,10.6,30.07,NNE,22,3.0,4.0,44,0.00,,,0.00,0,LWC V2.00 B727,2013-01-14 04:21:00,
2013-01-13 21:26:00,30.1,11.4,30.07,NNE,22,3.0,4.0,45,0.00,,,0.00,0,LWC V2.00 B727,2013-01-14 04:26:00,
2013-01-13 21:31:00,30.2,11.9,30.07,NNE,22,4.0,4.0,46,0.00,,,0.00,0,LWC V2.00 B727,2013-01-14 04:31:00,
2013-01-13 21:36:00,30.3,11.5,30.07,NNE,22,4.0,5.0,45,0.00,,,0.00,0,LWC V2.00 B727,2013-01-14 04:36:00,
2013-01-13 21:41:00,30.6,11.8,30.07,NNE,22,4.0,4.0,45,0.00,,,0.00,0,LWC V2.00 B727,2013-01-14 04:41:00,
2013-01-13 21:46:00,30.4,11.1,30.07,NNE,22,4.0,4.0,44,0.00,,,0.00,0,LWC V2.00 B727,2013-01-14 04:46:00,
2013-01-13 21:51:00,30.6,10.8,30.08,NNE,22,3.0,4.0,43,0.00,,,0.00,0,LWC V2.00 B727,2013-01-14 04:51:00,
2013-01-13 21:56:00,30.7,10.4,30.08,NNE,22,1.0,3.0,42,0.00,,,0.00,0,LWC V2.00 B727,2013-01-14 04:56:00,
2013-01-13 22:00:00,30.7,10.4,30.08,NNE,22,1.0,2.0,42,0.00,,,0.00,0,LWC V2.00 B727,2013-01-14 05:00:00,
2013-01-13 22:05:00,30.4,10.6,30.08,NNE,22,2.0,3.0,43,0.00,,,0.00,0,LWC V2.00 B727,2013-01-14 05:05:00,
2013-01-13 22:10:00,30.1,10.3,30.09,NNE,22,2.0,3.0,43,0.00,,,0.00,0,LWC V2.00 B727,2013-01-14 05:10:00,
2013-01-13 22:15:00,30.2,10.4,30.09,NNE,22,1.0,2.0,43,0.00,,,0.00,0,LWC V2.00 B727,2013-01-14 05:15:00,
2013-01-13 22:20:00,30.1,10.9,30.09,NNE,22,2.0,3.0,44,0.00,,,0.00,0,LWC V2.00 B727,2013-01-14 05:20:00,
2013-01-13 22:25:00,30.2,10.9,30.09,NNE,22,0.0,0.0,44,0.00,,,0.00,0,LWC V2.00 B727,2013-01-14 05:25:00,
2013-01-13 22:30:00,29.9,11.2,30.09,NNE,22,0.0,0.0,45,0.00,,,0.00,0,LWC V2.00 B727,2013-01-14 05:30:00,
2013-01-13 22:35:00,29.4,10.7,30.10,NNE,22,1.0,2.0,45,0.00,,,0.00,0,LWC V2.00 B727,2013-01-14 05:35:00,
2013-01-13 22:40:00,29.9,10.2,30.09,NNE,22,0.0,2.0,43,0.00,,,0.00,0,LWC V2.00 B727,2013-01-14 05:40:00,
2013-01-13 22:45:00,30.4,9.5,30.09,NNE,22,1.0,2.0,41,0.00,,,0.00,0,LWC V2.00 B727,2013-01-14 05:45:00,
2013-01-13 22:50:00,31.1,9.6,30.09,NNE,22,1.0,2.0,40,0.00,,,0.00,0,LWC V2.00 B727,2013-01-14 05:50:00,
2013-01-13 22:55:00,31.1,9.1,30.09,NNE,22,0.0,2.0,39,0.00,,,0.00,0,LWC V2.00 B727,2013-01-14 05:55:00,
2013-01-13 23:00:00,30.3,10.0,30.09,NNE,22,1.0,2.0,42,0.00,,,0.00,0,LWC V2.00 B727,2013-01-14 06:00:00,
2013-01-13 23:05:00,29.5,10.3,30.09,NNE,22,1.0,3.0,44,0.00,,,0.00,0,LWC V2.00 B727,2013-01-14 06:05:00,
2013-01-13 23:10:00,29.2,10.5,30.09,NNE,22,1.0,2.0,45,0.00,,,0.00,0,LWC V2.00 B727,2013-01-14 06:10:00,
2013-01-13 23:15:00,29.3,10.6,30.09,NNE,22,1.0,1.0,45,0.00,,,0.00,0,LWC V2.00 B727,2013-01-14 06:15:00,
2013-01-13 23:20:00,29.4,10.2,30.09,NNE,22,1.0,1.0,44,0.00,,,0.00,0,LWC V2.00 B727,2013-01-14 06:20:00,
2013-01-13 23:25:00,29.6,10.4,30.09,NNE,22,0.0,0.0,44,0.00,,,0.00,0,LWC V2.00 B727,2013-01-14 06:25:00,
2013-01-13 23:30:00,29.7,10.0,30.10,NNE,22,0.0,0.0,43,0.00,,,0.00,0,LWC V2.00 B727,2013-01-14 06:30:00,
2013-01-13 23:35:00,29.7,10.0,30.10,NNE,22,0.0,0.0,43,0.00,,,0.00,0,LWC V2.00 B727,2013-01-14 06:35:00,
2013-01-13 23:40:00,29.6,9.4,30.10,NNE,22,0.0,0.0,42,0.00,,,0.00,0,LWC V2.00 B727,2013-01-14 06:40:00,
2013-01-13 23:45:00,29.7,9.4,30.10,NNE,22,0.0,2.0,42,0.00,,,0.00,0,LWC V2.00 B727,2013-01-14 06:45:00,
2013-01-13 23:50:00,30.0,9.2,30.10,NNE,22,0.0,0.0,41,0.00,,,0.00,0,LWC V2.00 B727,2013-01-14 06:50:00,
2013-01-13 23:55:00,30.5,9.1,30.10,NNE,22,0.0,0.0,40,0.00,,,0.00,0,LWC V2.00 B727,2013-01-14 06:55:00,